createdAt,value
2019-05-15T00:01:45.760Z,9.83
2019-05-15T00:04:13.083Z,9.40
2019-05-15T00:06:40.378Z,11.38
2019-05-15T00:09:08.113Z,9.33
2019-05-15T00:11:35.498Z,8.80
2019-05-15T00:14:03.097Z,9.38
2019-05-15T00:16:30.360Z,9.33
2019-05-15T00:18:59.057Z,10.15
2019-05-15T00:21:28.651Z,9.70
2019-05-15T00:23:55.509Z,9.75
2019-05-15T00:26:22.831Z,10.28
2019-05-15T00:28:50.127Z,9.33
2019-05-15T00:31:18.624Z,8.78
2019-05-15T00:33:48.129Z,8.13
2019-05-15T00:36:14.990Z,9.10
2019-05-15T00:38:42.289Z,9.35
2019-05-15T00:41:09.732Z,9.53
2019-05-15T00:43:38.706Z,9.25
2019-05-15T00:46:06.116Z,10.18
2019-05-15T00:48:33.433Z,9.28
2019-05-15T00:51:00.733Z,9.25
2019-05-15T00:53:28.386Z,9.38
2019-05-15T00:55:57.920Z,9.05
2019-05-15T00:58:24.641Z,9.85
2019-05-15T01:00:51.957Z,9.25
2019-05-15T01:03:19.250Z,9.85
2019-05-15T01:05:48.105Z,9.55
2019-05-15T01:08:15.567Z,10.20
2019-05-15T01:10:42.861Z,10.45
2019-05-15T01:13:10.182Z,8.95
2019-05-15T01:15:38.706Z,9.90
2019-05-15T01:18:06.127Z,9.60
2019-05-15T01:20:33.443Z,9.85
2019-05-15T01:23:00.738Z,9.40
2019-05-15T01:25:28.133Z,9.30
2019-05-15T01:27:55.450Z,9.58
2019-05-15T01:30:22.734Z,9.55
2019-05-15T01:32:50.024Z,8.73
2019-05-15T01:35:18.001Z,9.13
2019-05-15T01:37:45.332Z,9.73
2019-05-15T01:40:12.648Z,9.00
2019-05-15T01:42:39.938Z,9.23
2019-05-15T01:45:08.638Z,8.80
2019-05-15T01:47:38.568Z,8.50
2019-05-15T01:50:06.117Z,9.15
2019-05-15T01:52:33.431Z,8.75
2019-05-15T01:55:00.717Z,8.73
2019-05-15T01:57:28.724Z,9.40
2019-05-15T01:59:58.316Z,8.55
2019-05-15T02:02:25.063Z,9.20
2019-05-15T02:04:52.352Z,9.18
2019-05-15T02:07:19.695Z,9.33
2019-05-15T02:09:49.040Z,8.95
2019-05-15T02:12:15.894Z,8.45
2019-05-15T02:14:43.199Z,9.40
2019-05-15T02:17:10.487Z,8.40
2019-05-15T02:19:39.189Z,9.20
2019-05-15T02:22:08.395Z,8.78
2019-05-15T02:24:35.676Z,9.10
2019-05-15T02:27:02.986Z,8.78
2019-05-15T02:29:30.305Z,8.88
2019-05-15T02:31:59.176Z,9.95
2019-05-15T02:34:29.707Z,9.90
2019-05-15T02:36:55.487Z,9.70
2019-05-15T02:39:22.795Z,8.95
2019-05-15T02:41:50.085Z,9.68
2019-05-15T02:44:19.909Z,9.98
2019-05-15T02:46:49.665Z,8.78
2019-05-15T02:49:15.284Z,10.25
2019-05-15T02:51:42.594Z,8.78
2019-05-15T02:54:10.539Z,8.50
2019-05-15T02:56:39.323Z,9.53
2019-05-15T02:59:09.272Z,9.08
2019-05-15T03:01:35.728Z,9.60
2019-05-15T03:04:03.023Z,9.03
2019-05-15T03:06:30.319Z,9.10
2019-05-15T03:08:59.622Z,9.88
2019-05-15T03:11:29.538Z,9.95
2019-05-15T03:13:59.109Z,10.25
2019-05-15T03:16:24.940Z,10.60
2019-05-15T03:18:55.758Z,11.22
2019-05-15T03:21:21.207Z,9.40
2019-05-15T03:23:50.614Z,9.90
2019-05-15T03:26:19.833Z,11.90
2019-05-15T03:28:49.379Z,10.70
2019-05-15T03:31:35.112Z,10.40
2019-05-15T03:33:46.890Z,10.15
2019-05-15T03:36:14.223Z,11.00
2019-05-15T03:38:41.624Z,10.30
2019-05-15T03:41:10.226Z,10.50
2019-05-15T03:43:39.344Z,10.72
2019-05-15T03:46:09.122Z,10.80
2019-05-15T03:48:35.793Z,10.65
2019-05-15T03:51:03.088Z,10.85
2019-05-15T03:53:30.427Z,11.78
2019-05-15T03:55:59.014Z,10.58
2019-05-15T03:58:28.792Z,9.90
2019-05-15T04:00:55.443Z,9.88
2019-05-15T04:03:22.719Z,10.13
2019-05-15T04:05:50.036Z,10.48
2019-05-15T04:08:19.510Z,9.93
2019-05-15T04:10:48.766Z,10.88
2019-05-15T04:13:15.234Z,9.88
2019-05-15T04:15:42.522Z,9.40
2019-05-15T04:18:09.974Z,9.63
2019-05-15T04:20:40.519Z,9.70
2019-05-15T04:23:09.787Z,10.05
2019-05-15T04:25:35.229Z,9.33
2019-05-15T04:28:02.522Z,9.50
2019-05-15T04:30:30.802Z,9.08
2019-05-15T04:32:59.498Z,9.20
2019-05-15T04:35:28.989Z,8.20
2019-05-15T04:37:55.894Z,10.32
2019-05-15T04:40:23.215Z,8.48
2019-05-15T04:42:50.511Z,9.13
2019-05-15T04:45:19.499Z,9.38
2019-05-15T04:47:49.769Z,10.10
2019-05-15T04:50:19.116Z,7.33
2019-05-15T04:52:44.829Z,7.85
2019-05-15T04:55:12.131Z,8.43
2019-05-15T04:57:40.505Z,7.42
2019-05-15T05:00:09.709Z,7.45
2019-05-15T05:02:39.967Z,8.00
2019-05-15T05:05:09.637Z,8.85
2019-05-15T05:07:35.083Z,6.00
2019-05-15T05:10:02.430Z,6.50
2019-05-15T05:12:29.725Z,6.78
2019-05-15T05:14:58.700Z,5.72
2019-05-15T05:17:28.662Z,7.40
2019-05-15T05:19:55.067Z,7.12
2019-05-15T05:22:22.367Z,6.28
2019-05-15T05:24:49.686Z,6.33
2019-05-15T05:27:18.279Z,5.67
2019-05-15T05:29:47.926Z,6.30
2019-05-15T05:32:30.524Z,6.05
2019-05-15T05:34:43.449Z,5.55
2019-05-15T05:37:10.768Z,5.95
2019-05-15T05:39:39.463Z,9.10
2019-05-15T05:42:07.900Z,7.35
2019-05-15T05:44:35.250Z,7.20
2019-05-15T05:47:02.553Z,7.65
2019-05-15T05:49:29.857Z,6.12
2019-05-15T05:51:58.735Z,6.25
2019-05-15T05:54:28.645Z,7.20
2019-05-15T05:56:55.107Z,7.10
2019-05-15T05:59:22.389Z,6.15
2019-05-15T06:01:49.706Z,6.97
2019-05-15T06:04:18.623Z,6.20
2019-05-15T06:06:48.619Z,6.55
2019-05-15T06:09:15.033Z,6.25
2019-05-15T06:11:42.417Z,5.80
2019-05-15T06:14:09.711Z,5.60
2019-05-15T06:16:38.735Z,5.58
2019-05-15T06:19:08.205Z,5.65
2019-05-15T06:21:34.883Z,5.20
2019-05-15T06:24:04.969Z,5.12
2019-05-15T06:26:31.153Z,5.42
2019-05-15T06:28:58.681Z,5.50
2019-05-15T06:31:27.989Z,5.55
2019-05-15T06:33:54.919Z,6.37
2019-05-15T06:36:22.226Z,6.20
2019-05-15T06:38:49.552Z,5.40
2019-05-15T06:41:18.112Z,6.15
2019-05-15T06:43:48.109Z,5.45
2019-05-15T06:46:14.597Z,6.05
2019-05-15T06:48:41.882Z,6.05
2019-05-15T06:51:09.166Z,6.70
2019-05-15T06:53:38.455Z,5.35
2019-05-15T06:56:07.777Z,6.03
2019-05-15T06:58:34.378Z,5.50
2019-05-15T07:01:01.692Z,5.60
2019-05-15T07:03:29.538Z,5.40
2019-05-15T07:05:59.711Z,4.95
2019-05-15T07:08:28.662Z,4.70
2019-05-15T07:10:54.907Z,4.55
2019-05-15T07:13:22.198Z,4.97
2019-05-15T07:15:49.954Z,4.95
2019-05-15T07:18:19.774Z,4.78
2019-05-15T07:20:48.627Z,4.08
2019-05-15T07:23:15.217Z,3.80
2019-05-15T07:25:42.510Z,3.92
2019-05-15T07:28:09.798Z,4.47
2019-05-15T07:30:41.123Z,4.53
2019-05-15T07:33:08.589Z,4.50
2019-05-15T07:35:35.011Z,3.83
2019-05-15T07:38:02.296Z,4.00
2019-05-15T07:40:30.056Z,4.78
2019-05-15T07:42:58.593Z,4.47
2019-05-15T07:45:28.209Z,4.35
2019-05-15T07:47:55.044Z,4.12
2019-05-15T07:50:22.375Z,4.00
2019-05-15T07:52:49.694Z,3.65
2019-05-15T07:55:18.484Z,3.90
2019-05-15T07:57:45.876Z,3.35
2019-05-15T08:00:14.531Z,3.20
2019-05-15T08:02:41.878Z,3.50
2019-05-15T08:05:09.190Z,3.25
2019-05-15T08:07:38.723Z,4.22
2019-05-15T08:10:08.550Z,3.90
2019-05-15T08:12:35.233Z,3.70
2019-05-15T08:15:02.506Z,4.45
2019-05-15T08:17:29.826Z,3.87
2019-05-15T08:19:58.270Z,4.15
2019-05-15T08:22:25.591Z,3.42
2019-05-15T08:24:52.911Z,3.25
2019-05-15T08:27:23.314Z,2.98
2019-05-15T08:29:49.167Z,3.70
2019-05-15T08:32:18.840Z,3.05
2019-05-15T08:34:45.452Z,3.33
2019-05-15T08:37:12.746Z,3.87
2019-05-15T08:39:40.057Z,3.85
2019-05-15T08:42:07.949Z,3.20
2019-05-15T08:44:35.338Z,3.80
2019-05-15T08:47:02.689Z,4.40
2019-05-15T08:49:29.980Z,3.60
2019-05-15T08:51:58.440Z,3.00
2019-05-15T08:54:25.811Z,3.08
2019-05-15T08:56:53.106Z,3.40
2019-05-15T08:59:20.423Z,3.50
2019-05-15T09:01:48.966Z,2.80
2019-05-15T09:04:27.773Z,3.12
2019-05-15T09:06:45.385Z,3.17
2019-05-15T09:09:12.666Z,3.20
2019-05-15T09:11:39.988Z,3.10
2019-05-15T09:14:08.215Z,3.17
2019-05-15T09:16:35.593Z,2.55
2019-05-15T09:19:02.897Z,2.72
2019-05-15T09:21:30.205Z,2.67
2019-05-15T09:23:58.883Z,2.45
2019-05-15T09:26:28.370Z,2.40
2019-05-15T09:28:55.354Z,2.60
2019-05-15T09:31:22.651Z,2.83
2019-05-15T09:33:49.942Z,2.35
2019-05-15T09:36:19.824Z,2.70
2019-05-15T09:38:46.190Z,2.10
2019-05-15T09:41:13.502Z,2.80
2019-05-15T09:43:42.460Z,2.08
2019-05-15T09:46:10.483Z,2.50
2019-05-15T09:48:39.073Z,2.17
2019-05-15T09:51:09.015Z,2.22
2019-05-15T09:53:35.486Z,2.50
2019-05-15T09:56:02.771Z,1.60
2019-05-15T09:58:30.365Z,2.37
2019-05-15T10:00:57.669Z,2.08
2019-05-15T10:03:25.005Z,2.17
2019-05-15T10:05:52.287Z,1.98
2019-05-15T10:08:21.344Z,2.02
2019-05-15T10:10:48.868Z,2.55
2019-05-15T10:13:18.520Z,2.45
2019-05-15T10:15:49.976Z,2.17
2019-05-15T10:18:14.282Z,2.30
2019-05-15T10:20:41.593Z,2.10
2019-05-15T10:23:09.016Z,2.90
2019-05-15T10:25:38.749Z,2.37
2019-05-15T10:28:05.264Z,2.58
2019-05-15T10:30:32.556Z,2.40
2019-05-15T10:32:59.934Z,2.65
2019-05-15T10:35:29.262Z,2.35
2019-05-15T10:37:59.069Z,1.98
2019-05-15T10:40:25.211Z,2.40
2019-05-15T10:42:52.511Z,1.82
2019-05-15T10:45:19.791Z,1.80
2019-05-15T10:47:49.618Z,1.87
2019-05-15T10:50:18.872Z,1.70
2019-05-15T10:52:44.985Z,2.05
2019-05-15T10:55:12.309Z,1.80
2019-05-15T10:57:43.305Z,1.50
2019-05-15T11:00:09.824Z,2.55
2019-05-15T11:02:39.472Z,1.98
2019-05-15T11:05:09.430Z,1.50
2019-05-15T11:07:35.738Z,1.20
2019-05-15T11:10:03.509Z,2.45
2019-05-15T11:12:30.789Z,1.47
2019-05-15T11:14:58.116Z,1.17
2019-05-15T11:17:25.411Z,1.17
2019-05-15T11:19:52.697Z,2.00
2019-05-15T11:22:20.001Z,1.25
2019-05-15T11:24:50.832Z,1.80
2019-05-15T11:27:16.290Z,1.80
2019-05-15T11:29:44.385Z,2.00
2019-05-15T11:32:11.701Z,1.87
2019-05-15T11:34:38.991Z,2.30
2019-05-15T11:37:06.318Z,3.25
2019-05-15T11:39:33.659Z,2.17
2019-05-15T11:42:00.927Z,1.67
2019-05-15T11:44:28.418Z,1.90
2019-05-15T11:46:55.701Z,1.85
2019-05-15T11:49:23.028Z,2.27
2019-05-15T11:51:50.764Z,1.92
2019-05-15T11:54:19.092Z,1.45
2019-05-15T11:56:49.033Z,1.50
2019-05-15T11:59:18.287Z,1.90
2019-05-15T12:01:44.716Z,1.72
2019-05-15T12:04:25.433Z,1.70
2019-05-15T12:06:40.926Z,2.30
2019-05-15T12:09:09.087Z,1.62
2019-05-15T12:11:40.487Z,1.65
2019-05-15T12:14:05.597Z,1.42
2019-05-15T12:16:36.180Z,1.17
2019-05-15T12:19:09.070Z,1.90
2019-05-15T12:21:30.759Z,1.45
2019-05-15T12:23:59.115Z,1.30
2019-05-15T12:26:29.213Z,1.40
2019-05-15T12:28:58.463Z,1.27
2019-05-15T12:31:24.835Z,1.70
2019-05-15T12:33:52.132Z,1.55
2019-05-15T12:36:45.938Z,1.40
2019-05-15T12:38:50.313Z,1.55
2019-05-15T13:01:16.999Z,1.20
2019-05-15T13:03:38.379Z,1.27
2019-05-15T13:06:07.924Z,1.20
2019-05-15T13:08:34.634Z,1.45
2019-05-15T13:11:01.987Z,1.25
2019-05-15T13:13:29.344Z,1.12
2019-05-15T13:15:58.856Z,1.00
2019-05-15T13:18:25.588Z,1.00
2019-05-15T13:20:56.006Z,0.65
2019-05-15T13:23:21.839Z,0.95
2019-05-15T13:25:49.136Z,1.12
2019-05-15T13:28:18.428Z,0.95
2019-05-15T13:30:45.375Z,1.50
2019-05-15T13:33:12.675Z,1.15
2019-05-15T13:35:39.985Z,1.70
2019-05-15T13:38:10.030Z,1.60
2019-05-15T13:40:41.032Z,1.30
2019-05-15T13:43:05.146Z,1.00
2019-05-15T13:45:32.458Z,1.17
2019-05-15T13:47:59.751Z,2.10
2019-05-15T13:50:28.522Z,1.30
2019-05-15T13:52:55.936Z,1.72
2019-05-15T13:55:25.902Z,3.08
2019-05-15T13:57:52.241Z,1.20
2019-05-15T14:00:19.594Z,2.22
2019-05-15T14:02:48.014Z,2.45
2019-05-15T14:05:15.396Z,1.50
2019-05-15T14:07:49.748Z,1.42
2019-05-15T14:10:11.616Z,2.20
2019-05-15T14:12:38.937Z,1.98
2019-05-15T14:15:08.821Z,1.52
2019-05-15T14:17:37.576Z,1.72
2019-05-15T14:20:04.882Z,1.50
2019-05-15T14:22:32.179Z,1.90
2019-05-15T14:24:59.494Z,1.90
2019-05-15T14:27:29.013Z,2.00
2019-05-15T14:29:58.070Z,1.95
2019-05-15T14:32:35.558Z,2.20
2019-05-15T14:34:53.620Z,2.05
2019-05-15T14:37:20.934Z,2.08
2019-05-15T14:39:52.289Z,1.90
2019-05-15T14:42:18.646Z,2.40
2019-05-15T14:44:48.414Z,2.20
2019-05-15T14:47:14.973Z,2.50
2019-05-15T14:49:44.990Z,2.17
2019-05-15T14:52:11.273Z,2.00
2019-05-15T14:54:38.617Z,2.50
2019-05-15T14:57:05.862Z,1.95
2019-05-15T14:59:33.178Z,2.12
2019-05-15T15:02:00.660Z,1.80
2019-05-15T15:04:29.078Z,1.80
2019-05-15T15:06:57.966Z,1.67
2019-05-15T15:09:25.475Z,2.27
2019-05-15T15:11:52.746Z,1.87
2019-05-15T15:14:20.065Z,1.98
2019-05-15T15:16:48.909Z,1.90
2019-05-15T15:19:18.533Z,1.57
2019-05-15T15:21:45.354Z,1.90
2019-05-15T15:24:12.670Z,1.98
2019-05-15T15:26:39.983Z,2.22
2019-05-15T15:29:08.498Z,2.15
2019-05-15T15:31:35.894Z,2.47
2019-05-15T15:34:03.453Z,2.12
2019-05-15T15:36:30.776Z,2.27
2019-05-15T15:38:58.803Z,2.40
2019-05-15T15:41:28.474Z,2.25
2019-05-15T15:43:55.206Z,2.30
2019-05-15T15:46:22.533Z,2.45
2019-05-15T15:48:49.829Z,2.77
2019-05-15T15:51:17.840Z,2.33
2019-05-15T15:53:45.336Z,3.00
2019-05-15T15:56:13.126Z,2.65
2019-05-15T15:58:40.438Z,2.65
2019-05-15T16:01:09.037Z,3.10
2019-05-15T16:03:37.996Z,2.50
2019-05-15T16:06:05.447Z,4.30
2019-05-15T16:08:32.779Z,3.20
2019-05-15T16:11:00.065Z,3.45
2019-05-15T16:13:29.265Z,2.90
2019-05-15T16:15:57.916Z,2.58
2019-05-15T16:18:25.246Z,3.27
2019-05-15T16:20:52.558Z,2.98
2019-05-15T16:23:19.845Z,3.05
2019-05-15T16:25:48.972Z,2.72
2019-05-15T16:28:18.286Z,3.30
2019-05-15T16:30:50.913Z,3.45
2019-05-15T16:33:13.994Z,3.58
2019-05-15T16:35:41.318Z,4.17
2019-05-15T16:38:09.295Z,3.90
2019-05-15T16:40:38.287Z,4.37
2019-05-15T16:43:05.841Z,4.40
2019-05-15T16:45:33.221Z,4.12
2019-05-15T16:48:00.505Z,4.60
2019-05-15T16:50:28.639Z,3.50
2019-05-15T16:52:58.283Z,3.75
2019-05-15T16:55:24.941Z,3.52
2019-05-15T16:57:52.249Z,4.20
2019-05-15T17:00:19.578Z,3.85
2019-05-15T17:02:48.232Z,4.37
2019-05-15T17:05:15.642Z,3.95
2019-05-15T17:07:42.957Z,4.08
2019-05-15T17:10:10.238Z,4.60
2019-05-15T17:12:38.651Z,4.00
2019-05-15T17:15:08.542Z,4.83
2019-05-15T17:17:35.550Z,4.83
2019-05-15T17:20:03.508Z,4.60
2019-05-15T17:22:30.821Z,4.30
2019-05-15T17:24:58.395Z,3.90
2019-05-15T17:27:25.732Z,3.98
2019-05-15T17:29:53.021Z,4.08
2019-05-15T17:32:20.336Z,3.87
2019-05-15T17:34:48.799Z,4.70
2019-05-15T17:37:18.243Z,3.80
2019-05-15T17:39:45.173Z,3.95
2019-05-15T17:42:12.498Z,3.90
2019-05-15T17:44:39.789Z,4.65
2019-05-15T17:47:09.662Z,3.87
2019-05-15T17:49:36.071Z,4.17
2019-05-15T17:52:03.367Z,4.20
2019-05-15T17:54:30.651Z,4.20
2019-05-15T17:56:58.534Z,3.70
2019-05-15T17:59:26.547Z,3.80
2019-05-15T18:01:54.918Z,3.42
2019-05-15T18:04:22.202Z,4.40
2019-05-15T18:06:49.501Z,3.90
2019-05-15T18:09:18.749Z,4.20
2019-05-15T18:11:47.621Z,4.35
2019-05-15T18:14:14.665Z,4.05
2019-05-15T18:16:42.087Z,4.28
2019-05-15T18:19:09.412Z,3.65
2019-05-15T18:21:38.288Z,4.58
2019-05-15T18:24:06.250Z,4.08
2019-05-15T18:26:33.557Z,4.30
2019-05-15T18:29:00.850Z,3.67
2019-05-15T18:31:28.614Z,4.53
2019-05-15T18:33:58.689Z,4.60
2019-05-15T18:36:25.354Z,4.55
2019-05-15T18:38:52.634Z,4.22
2019-05-15T18:41:19.950Z,3.87
2019-05-15T18:43:48.360Z,4.60
2019-05-15T18:46:18.159Z,4.45
2019-05-15T18:48:44.693Z,4.08
2019-05-15T18:51:11.979Z,4.05
2019-05-15T18:53:39.470Z,5.00
2019-05-15T18:56:08.786Z,4.15
2019-05-15T18:58:37.980Z,4.37
2019-05-15T19:01:04.682Z,4.47
2019-05-15T19:03:32.001Z,3.98
2019-05-15T19:05:59.288Z,3.70
2019-05-15T19:08:28.227Z,3.95
2019-05-15T19:10:55.676Z,3.50
2019-05-15T19:13:22.990Z,4.35
2019-05-15T19:15:50.268Z,4.20
2019-05-15T19:18:18.620Z,3.60
2019-05-15T19:20:48.527Z,3.72
2019-05-15T19:23:14.905Z,4.35
2019-05-15T19:25:42.193Z,4.47
2019-05-15T19:28:09.505Z,4.05
2019-05-15T19:30:38.827Z,4.40
2019-05-15T19:33:07.689Z,3.83
2019-05-15T19:35:34.706Z,3.92
2019-05-15T19:38:02.029Z,4.42
2019-05-15T19:40:29.325Z,4.90
2019-05-15T19:42:58.911Z,4.22
2019-05-15T19:45:27.757Z,4.65
2019-05-15T19:47:54.521Z,4.20
2019-05-15T19:50:22.101Z,4.50
2019-05-15T19:52:49.427Z,4.55
2019-05-15T19:55:17.729Z,4.00
2019-05-15T19:57:45.691Z,4.37
2019-05-15T20:00:12.979Z,4.03
2019-05-15T20:02:40.270Z,4.15
2019-05-15T20:05:09.210Z,4.75
2019-05-15T20:07:38.413Z,3.77
2019-05-15T20:10:06.001Z,4.05
2019-05-15T20:12:33.381Z,3.80
2019-05-15T20:15:00.694Z,4.17
2019-05-15T20:17:27.986Z,4.72
2019-05-15T20:19:55.264Z,5.83
2019-05-15T20:22:22.564Z,7.55
2019-05-15T20:24:49.849Z,4.80
2019-05-15T20:27:18.792Z,5.97
2019-05-15T20:29:48.552Z,4.25
2019-05-15T20:32:15.231Z,4.08
2019-05-15T20:34:42.530Z,4.10
2019-05-15T20:37:09.831Z,4.78
2019-05-15T20:39:38.634Z,4.08
2019-05-15T20:42:08.443Z,4.60
2019-05-15T20:44:35.204Z,4.10
2019-05-15T20:47:02.696Z,4.17
2019-05-15T20:49:29.987Z,5.30
2019-05-15T20:51:58.231Z,4.85
2019-05-15T20:54:25.587Z,5.05
2019-05-15T20:56:52.881Z,5.28
2019-05-15T20:59:20.162Z,5.00
2019-05-15T21:01:48.283Z,5.47
2019-05-15T21:04:22.426Z,3.98
2019-05-15T21:06:45.384Z,4.72
2019-05-15T21:09:12.670Z,4.15
2019-05-15T21:11:39.966Z,3.85
2019-05-15T21:14:08.683Z,4.20
2019-05-15T21:16:36.083Z,4.47
2019-05-15T21:19:03.367Z,4.00
2019-05-15T21:21:30.677Z,4.65
2019-05-15T21:24:00.699Z,4.95
2019-05-15T21:26:27.132Z,4.80
2019-05-15T21:28:55.849Z,5.12
2019-05-15T21:31:23.146Z,5.00
2019-05-15T21:33:50.745Z,4.67
2019-05-15T21:36:19.455Z,4.53
2019-05-15T21:38:48.019Z,4.45
2019-05-15T21:41:15.438Z,4.60
2019-05-15T21:43:42.757Z,4.15
2019-05-15T21:46:10.045Z,4.62
2019-05-15T21:48:38.234Z,4.78
2019-05-15T21:51:11.352Z,4.33
2019-05-15T21:53:34.602Z,4.65
2019-05-15T21:56:01.922Z,3.62
2019-05-15T21:58:29.217Z,4.83
2019-05-15T22:00:56.687Z,4.60
2019-05-15T22:03:23.999Z,5.05
2019-05-15T22:05:51.286Z,4.55
2019-05-15T22:08:18.700Z,4.28
2019-05-15T22:10:48.061Z,4.55
2019-05-15T22:13:15.078Z,4.70
2019-05-15T22:15:42.376Z,4.83
2019-05-15T22:18:11.479Z,4.50
2019-05-15T22:20:38.905Z,4.50
2019-05-15T22:23:08.221Z,4.65
2019-05-15T22:25:35.175Z,4.17
2019-05-15T22:28:02.581Z,4.80
2019-05-15T22:30:30.355Z,4.50
2019-05-15T22:32:58.724Z,4.08
2019-05-15T22:35:26.187Z,4.72
2019-05-15T22:37:53.497Z,4.12
2019-05-15T22:40:20.791Z,4.60
2019-05-15T22:42:48.581Z,4.62
2019-05-15T22:45:17.925Z,4.75
2019-05-15T22:47:45.127Z,4.30
2019-05-15T22:50:12.415Z,4.17
2019-05-15T22:52:39.736Z,4.37
2019-05-15T22:55:07.010Z,4.25
2019-05-15T22:57:34.328Z,4.05
2019-05-15T23:00:01.621Z,4.10
2019-05-15T23:02:28.934Z,4.35
2019-05-15T23:04:56.221Z,4.72
2019-05-15T23:07:23.711Z,4.20
2019-05-15T23:09:51.041Z,3.95
2019-05-15T23:12:18.362Z,4.60
2019-05-15T23:14:45.649Z,4.00
2019-05-15T23:17:12.936Z,4.83
2019-05-15T23:19:40.228Z,4.85
2019-05-15T23:22:08.341Z,4.08
2019-05-15T23:24:35.718Z,4.50
2019-05-15T23:27:03.035Z,4.45
2019-05-15T23:29:30.323Z,4.58
2019-05-15T23:31:58.395Z,4.25
2019-05-15T23:34:27.931Z,4.22
2019-05-15T23:36:54.763Z,4.70
2019-05-15T23:39:22.064Z,3.85
2019-05-15T23:41:49.381Z,4.00
2019-05-15T23:44:18.387Z,4.35
2019-05-15T23:46:45.792Z,3.65
2019-05-15T23:49:13.074Z,4.05
2019-05-15T23:51:40.351Z,4.03
2019-05-15T23:54:08.248Z,4.50
2019-05-15T23:56:38.506Z,4.15
2019-05-15T23:59:04.715Z,4.58
